createdAt,value
2018-01-21T00:01:42.862Z,22.45
2018-01-21T00:04:10.348Z,23.70
2018-01-21T00:06:37.841Z,23.05
2018-01-21T00:09:06.169Z,23.27
2018-01-21T00:11:33.654Z,22.25
2018-01-21T00:14:02.916Z,24.30
2018-01-21T00:16:30.478Z,24.27
2018-01-21T00:18:57.962Z,24.42
2018-01-21T00:21:25.501Z,24.10
2018-01-21T00:23:52.989Z,23.80
2018-01-21T00:26:20.469Z,23.23
2018-01-21T00:28:48.356Z,24.08
2018-01-21T00:31:16.738Z,24.00
2018-01-21T00:33:45.343Z,22.00
2018-01-21T00:36:12.848Z,21.48
2018-01-21T00:38:40.336Z,21.67
2018-01-21T00:41:08.582Z,24.30
2018-01-21T00:43:36.384Z,21.83
2018-01-21T00:46:03.919Z,24.87
2018-01-21T00:48:31.561Z,22.90
2018-01-21T00:50:59.886Z,22.55
2018-01-21T00:53:27.365Z,23.25
2018-01-21T00:55:54.854Z,22.83
2018-01-21T00:58:22.461Z,24.15
2018-01-21T01:00:50.079Z,25.80
2018-01-21T01:03:17.609Z,27.37
2018-01-21T01:05:45.154Z,27.67
2018-01-21T01:08:12.626Z,25.65
2018-01-21T01:10:40.109Z,26.50
2018-01-21T01:13:07.649Z,25.10
2018-01-21T01:15:35.139Z,26.92
2018-01-21T01:18:02.626Z,26.77
2018-01-21T01:20:30.881Z,26.50
2018-01-21T01:22:58.801Z,29.05
2018-01-21T01:25:26.289Z,28.33
2018-01-21T01:27:53.785Z,29.35
2018-01-21T01:30:22.039Z,28.80
2018-01-21T01:32:49.521Z,29.08
2018-01-21T01:35:17.798Z,28.20
2018-01-21T01:37:46.059Z,30.42
2018-01-21T01:40:13.537Z,28.92
2018-01-21T01:42:41.797Z,30.67
2018-01-21T01:45:09.486Z,30.40
2018-01-21T01:47:37.314Z,30.83
2018-01-21T01:50:04.885Z,32.05
2018-01-21T01:52:33.138Z,30.23
2018-01-21T01:55:00.626Z,26.15
2018-01-21T01:57:28.895Z,24.60
2018-01-21T01:59:56.374Z,22.27
2018-01-21T02:02:23.857Z,24.08
2018-01-21T02:04:51.549Z,24.60
2018-01-21T02:07:19.025Z,24.58
2018-01-21T02:09:46.506Z,22.98
2018-01-21T02:12:14.760Z,24.27
2018-01-21T02:14:42.240Z,25.35
2018-01-21T02:17:09.729Z,26.17
2018-01-21T02:19:37.226Z,26.40
2018-01-21T02:22:04.878Z,27.30
2018-01-21T02:24:33.167Z,28.58
2018-01-21T02:27:00.759Z,28.92
2018-01-21T02:29:29.083Z,28.17
2018-01-21T02:31:56.614Z,27.58
2018-01-21T02:34:24.101Z,27.02
2018-01-21T02:36:52.374Z,26.15
2018-01-21T02:39:19.853Z,25.70
2018-01-21T02:41:47.370Z,26.95
2018-01-21T02:44:15.003Z,27.73
2018-01-21T02:46:42.554Z,24.12
2018-01-21T02:49:10.105Z,23.12
2018-01-21T02:51:37.590Z,23.62
2018-01-21T02:54:05.074Z,23.17
2018-01-21T02:56:32.588Z,22.65
2018-01-21T02:59:00.072Z,22.15
2018-01-21T03:01:27.616Z,23.90
2018-01-21T03:03:55.170Z,23.75
2018-01-21T03:06:23.413Z,23.52
2018-01-21T03:08:50.898Z,23.92
2018-01-21T03:11:18.485Z,22.75
2018-01-21T03:13:45.973Z,23.85
2018-01-21T03:16:13.458Z,26.52
2018-01-21T03:18:41.731Z,25.85
2018-01-21T03:21:09.341Z,26.15
2018-01-21T03:23:36.894Z,24.40
2018-01-21T03:26:05.173Z,24.20
2018-01-21T03:28:32.661Z,23.58
2018-01-21T03:31:00.161Z,23.87
2018-01-21T03:33:27.664Z,25.17
2018-01-21T03:35:55.149Z,22.85
2018-01-21T03:38:22.629Z,22.13
2018-01-21T03:40:50.149Z,22.55
2018-01-21T03:43:17.654Z,22.70
2018-01-21T03:45:45.141Z,24.35
2018-01-21T03:48:12.673Z,21.42
2018-01-21T03:50:40.153Z,21.65
2018-01-21T03:53:08.394Z,22.55
2018-01-21T03:55:35.910Z,20.08
2018-01-21T03:58:03.394Z,22.95
2018-01-21T04:00:30.874Z,23.08
2018-01-21T04:02:58.412Z,22.92
2018-01-21T04:05:25.881Z,24.08
2018-01-21T04:07:53.373Z,26.95
2018-01-21T04:10:21.662Z,26.55
2018-01-21T04:12:49.145Z,24.75
2018-01-21T04:15:16.638Z,26.95
2018-01-21T04:17:44.142Z,25.33
2018-01-21T04:20:11.793Z,26.85
2018-01-21T04:22:39.290Z,23.95
2018-01-21T04:25:06.777Z,24.27
2018-01-21T04:27:34.578Z,26.45
2018-01-21T04:30:02.132Z,24.90
2018-01-21T04:32:30.389Z,28.58
2018-01-21T04:34:59.433Z,29.25
2018-01-21T04:37:26.935Z,26.75
2018-01-21T04:39:54.454Z,27.05
2018-01-21T04:42:21.937Z,26.65
2018-01-21T04:44:50.194Z,29.87
2018-01-21T04:47:17.897Z,26.58
2018-01-21T04:49:45.409Z,29.37
2018-01-21T04:52:12.894Z,25.75
2018-01-21T04:54:40.415Z,29.33
2018-01-21T04:57:07.890Z,28.95
2018-01-21T04:59:35.373Z,29.48
2018-01-21T05:02:02.910Z,28.48
2018-01-21T05:04:30.394Z,28.98
2018-01-21T05:06:57.874Z,29.12
2018-01-21T05:09:26.130Z,24.42
2018-01-21T05:11:53.623Z,25.00
2018-01-21T05:14:21.878Z,27.90
2018-01-21T05:16:49.395Z,25.73
2018-01-21T05:19:16.881Z,26.00
2018-01-21T05:21:44.396Z,28.25
2018-01-21T05:24:11.894Z,29.00
2018-01-21T05:26:39.393Z,26.23
2018-01-21T05:29:07.767Z,25.08
2018-01-21T05:31:35.518Z,23.70
2018-01-21T05:34:03.202Z,25.17
2018-01-21T05:36:30.685Z,24.25
2018-01-21T05:38:58.178Z,24.48
2018-01-21T05:41:25.897Z,22.37
2018-01-21T05:43:54.256Z,25.67
2018-01-21T05:46:22.569Z,24.17
2018-01-21T05:48:50.065Z,23.08
2018-01-21T05:51:17.545Z,21.77
2018-01-21T05:53:45.810Z,20.37
2018-01-21T05:56:13.295Z,20.70
2018-01-21T05:58:40.773Z,19.70
2018-01-21T06:01:08.269Z,19.60
2018-01-21T06:03:35.906Z,20.88
2018-01-21T06:06:03.390Z,18.17
2018-01-21T06:08:30.912Z,19.95
2018-01-21T06:10:58.421Z,16.67
2018-01-21T06:13:25.904Z,18.80
2018-01-21T06:15:53.433Z,19.62
2018-01-21T06:18:20.921Z,17.08
2018-01-21T06:20:49.169Z,13.35
2018-01-21T06:23:16.895Z,14.70
2018-01-21T06:25:44.442Z,16.42
2018-01-21T06:28:11.930Z,13.38
2018-01-21T06:30:39.427Z,15.90
2018-01-21T06:33:07.678Z,15.05
2018-01-21T06:35:35.400Z,15.23
2018-01-21T06:38:02.962Z,16.02
2018-01-21T06:40:30.455Z,16.65
2018-01-21T06:42:58.093Z,13.70
2018-01-21T06:45:26.006Z,14.35
2018-01-21T06:47:53.625Z,14.68
2018-01-21T06:50:21.105Z,14.82
2018-01-21T06:52:48.763Z,15.00
2018-01-21T06:55:16.366Z,13.45
2018-01-21T06:57:43.858Z,16.00
2018-01-21T07:00:11.413Z,15.00
2018-01-21T07:02:38.972Z,13.25
2018-01-21T07:05:06.457Z,14.05
2018-01-21T07:07:33.957Z,16.23
2018-01-21T07:10:02.205Z,16.98
2018-01-21T07:12:29.690Z,18.17
2018-01-21T07:14:57.973Z,17.95
2018-01-21T07:17:25.461Z,17.85
2018-01-21T07:19:52.945Z,14.55
2018-01-21T07:22:20.467Z,15.85
2018-01-21T07:24:48.008Z,16.83
2018-01-21T07:27:15.706Z,15.38
2018-01-21T07:29:44.029Z,15.90
2018-01-21T07:32:12.302Z,16.40
2018-01-21T07:34:39.783Z,14.85
2018-01-21T07:37:07.394Z,16.58
2018-01-21T07:39:34.877Z,16.85
2018-01-21T07:42:02.386Z,19.65
2018-01-21T07:44:29.925Z,19.48
2018-01-21T07:46:57.472Z,19.65
2018-01-21T07:49:25.719Z,22.65
2018-01-21T07:51:53.233Z,19.67
2018-01-21T07:54:20.881Z,19.80
2018-01-21T07:56:48.386Z,19.25
2018-01-21T07:59:15.887Z,18.70
2018-01-21T08:01:44.165Z,19.90
2018-01-21T08:04:12.409Z,19.25
2018-01-21T08:06:39.953Z,14.45
2018-01-21T08:09:07.626Z,15.98
2018-01-21T08:11:35.135Z,14.90
2018-01-21T08:14:02.667Z,12.90
2018-01-21T08:16:30.213Z,14.57
2018-01-21T08:18:57.705Z,14.18
2018-01-21T08:21:26.180Z,15.90
2018-01-21T08:23:54.422Z,13.90
2018-01-21T08:26:22.144Z,13.13
2018-01-21T08:28:49.641Z,13.77
2018-01-21T08:31:17.162Z,11.65
2018-01-21T08:33:50.282Z,13.35
2018-01-21T08:36:23.413Z,11.55
2018-01-21T08:38:58.202Z,12.95
2018-01-21T08:44:32.819Z,11.82
2018-01-21T08:47:00.505Z,11.38
2018-01-21T08:49:28.801Z,12.15
2018-01-21T08:51:56.358Z,11.32
2018-01-21T08:54:23.850Z,12.57
2018-01-21T08:56:52.335Z,10.63
2018-01-21T08:59:20.638Z,11.27
2018-01-21T09:01:48.131Z,13.38
2018-01-21T09:04:15.846Z,13.85
2018-01-21T09:06:43.426Z,14.20
2018-01-21T09:09:10.998Z,13.45
2018-01-21T09:11:39.474Z,12.55
2018-01-21T09:14:07.019Z,15.13
2018-01-21T09:16:34.514Z,14.15
2018-01-21T09:19:01.997Z,12.32
2018-01-21T09:21:30.394Z,15.23
2018-01-21T09:23:58.649Z,11.65
2018-01-21T09:26:26.138Z,15.38
2018-01-21T09:28:53.637Z,12.15
2018-01-21T09:31:21.121Z,13.13
2018-01-21T09:33:48.605Z,11.50
2018-01-21T09:36:16.114Z,13.73
2018-01-21T09:38:43.590Z,13.25
2018-01-21T09:41:11.071Z,12.75
2018-01-21T09:43:39.386Z,13.50
2018-01-21T09:46:06.875Z,12.55
2018-01-21T09:48:34.370Z,11.55
2018-01-21T09:51:02.673Z,13.45
2018-01-21T09:53:31.078Z,13.38
2018-01-21T09:55:59.890Z,13.85
2018-01-21T09:58:27.426Z,11.23
2018-01-21T10:00:54.932Z,12.18
2018-01-21T10:03:23.182Z,13.45
2018-01-21T10:05:51.498Z,11.60
2018-01-21T10:08:18.978Z,11.65
2018-01-21T10:10:46.512Z,13.65
2018-01-21T10:13:14.154Z,10.65
2018-01-21T10:15:41.705Z,11.82
2018-01-21T10:18:09.284Z,11.63
2018-01-21T10:20:37.561Z,11.43
2018-01-21T10:23:05.809Z,11.35
2018-01-21T10:25:33.300Z,12.10
2018-01-21T10:28:01.600Z,11.60
2018-01-21T10:30:29.090Z,12.85
2018-01-21T10:32:56.575Z,12.60
2018-01-21T10:35:24.082Z,14.87
2018-01-21T10:37:51.603Z,13.40
2018-01-21T10:40:19.890Z,13.75
2018-01-21T10:42:47.377Z,14.40
2018-01-21T10:45:15.071Z,15.55
2018-01-21T10:47:42.651Z,13.23
2018-01-21T10:50:10.152Z,12.77
2018-01-21T10:52:37.638Z,15.57
2018-01-21T10:55:05.341Z,13.45
2018-01-21T10:57:32.861Z,14.15
2018-01-21T11:00:00.361Z,12.70
2018-01-21T11:02:28.637Z,13.60
2018-01-21T11:04:56.914Z,14.18
2018-01-21T11:07:25.306Z,14.32
2018-01-21T11:09:52.898Z,14.23
2018-01-21T11:12:20.386Z,14.70
2018-01-21T11:14:47.872Z,14.25
2018-01-21T11:17:15.470Z,13.57
2018-01-21T11:19:42.946Z,15.55
2018-01-21T11:22:10.560Z,14.65
2018-01-21T11:24:38.283Z,14.52
2018-01-21T11:27:05.829Z,14.18
2018-01-21T11:29:37.163Z,14.77
2018-01-21T11:32:08.005Z,13.45
2018-01-21T11:34:37.441Z,12.32
2018-01-21T11:37:10.466Z,14.55
2018-01-21T11:39:39.435Z,13.75
2018-01-21T11:42:13.179Z,11.98
2018-01-21T11:44:40.789Z,14.52
2018-01-21T11:47:10.778Z,13.55
2018-01-21T11:49:39.183Z,13.88
2018-01-21T11:52:10.585Z,13.05
2018-01-21T11:54:41.611Z,13.43
2018-01-21T11:57:11.428Z,13.07
2018-01-21T11:59:41.710Z,13.30
2018-01-21T12:02:13.261Z,14.00
2018-01-21T12:04:44.414Z,14.07
2018-01-21T12:07:12.240Z,14.77
2018-01-21T12:09:39.965Z,12.47
2018-01-21T12:12:07.653Z,11.40
2018-01-21T12:14:35.431Z,13.30
2018-01-21T12:17:03.260Z,12.43
2018-01-21T12:19:31.562Z,11.23
2018-01-21T12:21:59.144Z,12.40
2018-01-21T12:24:28.321Z,12.77
2018-01-21T12:26:56.077Z,11.53
2018-01-21T12:29:23.605Z,10.80
2018-01-21T12:31:51.189Z,13.77
2018-01-21T12:34:18.854Z,12.60
2018-01-21T12:36:47.375Z,12.60
2018-01-21T12:39:15.113Z,11.33
2018-01-21T12:41:42.883Z,12.25
2018-01-21T12:44:11.299Z,13.88
2018-01-21T12:46:39.542Z,13.30
2018-01-21T12:49:07.647Z,13.88
2018-01-21T12:51:35.423Z,16.37
2018-01-21T12:54:03.872Z,16.02
2018-01-21T12:56:31.462Z,17.25
2018-01-21T12:58:58.947Z,15.18
2018-01-21T13:01:28.347Z,17.58
2018-01-21T13:03:56.471Z,17.08
2018-01-21T13:06:24.687Z,15.75
2018-01-21T13:08:53.206Z,14.95
2018-01-21T13:11:21.173Z,13.88
2018-01-21T13:13:49.884Z,15.52
2018-01-21T13:16:18.281Z,13.20
2018-01-21T13:18:46.355Z,14.23
2018-01-21T13:21:14.963Z,14.87
2018-01-21T13:23:45.743Z,14.85
2018-01-21T13:26:13.430Z,15.00
2018-01-21T13:28:40.928Z,13.62
2018-01-21T13:31:09.326Z,14.43
2018-01-21T13:33:38.115Z,14.52
2018-01-21T13:36:05.852Z,15.10
2018-01-21T13:38:34.398Z,16.42
2018-01-21T13:41:03.032Z,16.83
2018-01-21T13:43:31.617Z,15.98
2018-01-21T13:46:00.042Z,17.95
2018-01-21T13:48:27.916Z,17.48
2018-01-21T13:50:55.584Z,17.60
2018-01-21T13:53:24.646Z,15.63
2018-01-21T13:55:53.105Z,18.05
2018-01-21T13:58:21.671Z,16.33
2018-01-21T14:00:50.014Z,18.62
2018-01-21T14:03:18.507Z,18.42
2018-01-21T14:05:46.091Z,18.12
2018-01-21T14:08:14.483Z,21.20
2018-01-21T14:10:42.878Z,20.75
2018-01-21T14:13:10.473Z,22.27
2018-01-21T14:15:38.089Z,23.33
2018-01-21T14:18:05.654Z,21.35
2018-01-21T14:20:34.061Z,22.52
2018-01-21T14:23:01.715Z,21.42
2018-01-21T14:25:29.369Z,23.80
2018-01-21T14:27:56.900Z,21.92
2018-01-21T14:30:24.513Z,21.00
2018-01-21T14:32:52.190Z,22.52
2018-01-21T14:35:19.775Z,23.52
2018-01-21T14:37:47.370Z,20.15
2018-01-21T14:40:15.643Z,22.13
2018-01-21T14:42:43.890Z,22.77
2018-01-21T14:45:11.519Z,22.08
2018-01-21T14:47:39.156Z,23.40
2018-01-21T14:50:06.739Z,19.62
2018-01-21T14:52:34.369Z,22.20
2018-01-21T14:55:02.158Z,20.67
2018-01-21T14:57:29.678Z,20.65
2018-01-21T14:59:58.075Z,19.85
2018-01-21T15:02:25.702Z,20.95
2018-01-21T15:04:53.284Z,20.35
2018-01-21T15:07:21.696Z,18.33
2018-01-21T15:09:49.411Z,19.58
2018-01-21T15:12:17.069Z,19.12
2018-01-21T15:14:44.702Z,18.02
2018-01-21T15:17:12.287Z,19.58
2018-01-21T15:19:40.820Z,19.12
2018-01-21T15:22:08.520Z,20.17
2018-01-21T15:24:36.197Z,18.95
2018-01-21T15:27:04.660Z,21.00
2018-01-21T15:29:32.221Z,17.33
2018-01-21T15:31:59.822Z,19.35
2018-01-21T15:34:29.852Z,17.87
2018-01-21T15:37:02.465Z,20.35
2018-01-21T15:39:49.437Z,21.15
2018-01-21T15:42:20.339Z,19.37
2018-01-21T15:44:49.855Z,19.92
2018-01-21T15:47:17.419Z,19.23
2018-01-21T15:49:52.557Z,19.85
2018-01-21T15:55:16.900Z,21.58
2018-01-21T15:57:46.024Z,21.85
2018-01-21T16:00:13.947Z,20.23
2018-01-21T16:02:52.931Z,19.15
2018-01-21T16:05:21.193Z,18.70
2018-01-21T16:07:48.817Z,19.95
2018-01-21T16:10:16.377Z,19.90
2018-01-21T16:12:44.694Z,21.20
2018-01-21T16:15:13.128Z,20.40
2018-01-21T16:17:41.448Z,21.15
2018-01-21T16:23:04.290Z,18.12
2018-01-21T16:25:44.954Z,18.83
2018-01-21T16:28:16.141Z,17.92
2018-01-21T16:30:46.615Z,16.17
2018-01-21T16:33:14.942Z,17.15
2018-01-21T16:35:43.271Z,15.70
2018-01-21T16:38:24.635Z,15.00
2018-01-21T16:40:53.190Z,12.70
2018-01-21T16:43:21.979Z,12.93
2018-01-21T16:45:52.739Z,12.48
2018-01-21T16:48:21.309Z,11.80
2018-01-21T16:50:48.956Z,12.00
2018-01-21T16:53:16.474Z,11.52
2018-01-21T16:55:44.835Z,11.18
2018-01-21T16:58:12.382Z,12.43
2018-01-21T17:00:40.814Z,12.60
2018-01-21T17:03:08.821Z,12.10
2018-01-21T17:05:37.237Z,12.95
2018-01-21T17:08:05.398Z,12.02
2018-01-21T17:10:32.980Z,12.27
2018-01-21T17:13:01.859Z,12.50
2018-01-21T17:15:31.192Z,13.75
2018-01-21T17:17:58.993Z,12.55
2018-01-21T17:20:26.501Z,12.37
2018-01-21T17:22:54.046Z,12.13
2018-01-21T17:25:21.626Z,12.85
2018-01-21T17:27:49.662Z,13.45
2018-01-21T17:30:19.782Z,10.73
2018-01-21T17:32:52.561Z,11.95
2018-01-21T17:35:20.565Z,11.00
2018-01-21T17:37:48.270Z,12.50
2018-01-21T17:40:16.623Z,11.82
2018-01-21T17:42:51.706Z,11.48
2018-01-21T17:45:20.379Z,11.18
2018-01-21T17:47:47.991Z,10.82
2018-01-21T17:50:18.484Z,10.82
2018-01-21T17:52:46.760Z,9.48
2018-01-21T17:55:14.333Z,9.43
2018-01-21T17:57:41.932Z,10.82
2018-01-21T18:00:09.445Z,9.93
2018-01-21T18:02:37.172Z,9.48
2018-01-21T18:05:04.792Z,9.90
2018-01-21T18:07:33.698Z,9.50
2018-01-21T18:10:02.193Z,9.98
2018-01-21T18:12:31.551Z,9.00
2018-01-21T18:14:59.188Z,9.52
2018-01-21T18:17:26.786Z,8.52
2018-01-21T18:19:55.198Z,10.07
2018-01-21T18:22:22.799Z,9.50
2018-01-21T18:24:50.403Z,9.00
2018-01-21T18:27:18.050Z,9.48
2018-01-21T18:29:45.645Z,8.73
2018-01-21T18:32:13.345Z,10.63
2018-01-21T18:34:41.739Z,11.40
2018-01-21T18:37:09.389Z,10.77
2018-01-21T18:39:36.939Z,10.82
2018-01-21T18:42:05.090Z,11.73
2018-01-21T18:44:32.679Z,11.38
2018-01-21T18:47:01.416Z,11.77
2018-01-21T18:49:30.060Z,10.82
2018-01-21T18:51:57.837Z,9.35
2018-01-21T18:54:25.520Z,9.82
2018-01-21T18:56:53.058Z,8.55
2018-01-21T18:59:21.424Z,7.65
2018-01-21T19:01:49.933Z,9.10
2018-01-21T19:04:18.490Z,8.05
2018-01-21T19:06:46.881Z,8.32
2018-01-21T19:09:15.288Z,6.87
2018-01-21T19:11:42.818Z,7.65
2018-01-21T19:14:10.425Z,8.85
2018-01-21T19:16:38.003Z,8.50
2018-01-21T19:19:05.554Z,7.50
2018-01-21T19:21:33.085Z,6.90
2018-01-21T19:24:00.637Z,8.05
2018-01-21T19:26:28.241Z,8.45
2018-01-21T19:28:55.756Z,8.73
2018-01-21T19:31:23.345Z,8.13
2018-01-21T19:33:51.014Z,7.32
2018-01-21T19:36:18.549Z,6.15
2018-01-21T19:38:57.935Z,6.30
2018-01-21T19:44:27.507Z,5.40
2018-01-21T19:46:55.069Z,5.85
2018-01-21T19:49:22.904Z,4.72
2018-01-21T19:51:50.704Z,4.82
2018-01-21T19:54:18.320Z,4.37
2018-01-21T19:56:45.927Z,4.72
2018-01-21T19:59:14.479Z,4.35
2018-01-21T20:01:42.038Z,3.55
2018-01-21T20:04:09.587Z,4.68
2018-01-21T20:06:37.210Z,4.03
2018-01-21T20:09:04.924Z,6.40
2018-01-21T20:11:32.442Z,4.55
2018-01-21T20:13:59.983Z,4.12
2018-01-21T20:16:27.545Z,4.72
2018-01-21T20:18:55.184Z,4.70
2018-01-21T20:21:23.512Z,4.40
2018-01-21T20:23:51.093Z,4.93
2018-01-21T20:26:18.697Z,4.15
2018-01-21T20:28:46.279Z,3.75
2018-01-21T20:31:13.861Z,3.50
2018-01-21T20:33:41.483Z,4.70
2018-01-21T20:36:09.007Z,4.87
2018-01-21T20:38:37.326Z,3.70
2018-01-21T20:41:04.937Z,3.92
2018-01-21T20:43:32.531Z,4.32
2018-01-21T20:46:00.087Z,4.50
2018-01-21T20:48:27.648Z,4.43
2018-01-21T20:51:00.918Z,4.62
2018-01-21T20:53:34.332Z,4.45
2018-01-21T20:56:02.704Z,3.58
2018-01-21T20:58:31.126Z,4.50
2018-01-21T21:00:58.663Z,4.72
2018-01-21T21:03:26.293Z,4.40
2018-01-21T21:05:53.913Z,3.70
2018-01-21T21:08:21.448Z,4.55
2018-01-21T21:10:49.001Z,4.82
2018-01-21T21:13:16.618Z,4.37
2018-01-21T21:15:44.232Z,3.75
2018-01-21T21:18:11.886Z,5.20
2018-01-21T21:20:39.443Z,4.30
2018-01-21T21:23:07.698Z,4.03
2018-01-21T21:25:35.199Z,5.45
2018-01-21T21:28:02.674Z,3.83
2018-01-21T21:30:30.302Z,4.12
2018-01-21T21:32:58.064Z,4.28
2018-01-21T21:35:26.320Z,3.72
2018-01-21T21:37:53.806Z,3.50
2018-01-21T21:40:22.083Z,4.62
2018-01-21T21:42:50.341Z,4.43
2018-01-21T21:45:18.581Z,4.55
2018-01-21T21:47:46.115Z,3.65
2018-01-21T21:50:14.856Z,3.72
2018-01-21T21:52:42.387Z,2.95
2018-01-21T21:55:09.978Z,4.85
2018-01-21T21:57:37.590Z,4.03
2018-01-21T22:00:05.096Z,3.47
2018-01-21T22:02:32.700Z,3.00
2018-01-21T22:05:00.330Z,2.92
2018-01-21T22:07:27.882Z,2.78
2018-01-21T22:09:55.414Z,2.85
2018-01-21T22:12:23.013Z,3.03
2018-01-21T22:14:50.681Z,3.10
2018-01-21T22:17:18.207Z,3.67
2018-01-21T22:19:45.698Z,2.70
2018-01-21T22:22:13.238Z,2.60
2018-01-21T22:24:40.710Z,3.78
2018-01-21T22:27:08.453Z,2.50
2018-01-21T22:29:36.902Z,3.97
2018-01-21T22:32:04.554Z,2.80
2018-01-21T22:34:32.130Z,3.50
2018-01-21T22:36:59.675Z,2.58
2018-01-21T22:39:27.298Z,2.97
2018-01-21T22:41:54.956Z,2.95
2018-01-21T22:44:23.390Z,4.10
2018-01-21T22:46:50.975Z,3.20
2018-01-21T22:49:18.653Z,3.45
2018-01-21T22:51:47.115Z,3.75
2018-01-21T22:54:14.638Z,3.85
2018-01-21T22:56:43.002Z,3.08
2018-01-21T22:59:10.654Z,3.10
2018-01-21T23:01:38.256Z,3.10
2018-01-21T23:04:05.953Z,4.07
2018-01-21T23:06:33.572Z,3.95
2018-01-21T23:09:01.090Z,2.62
2018-01-21T23:11:28.654Z,3.80
2018-01-21T23:13:57.319Z,2.75
2018-01-21T23:16:25.023Z,3.25
2018-01-21T23:18:53.430Z,3.00
2018-01-21T23:21:21.111Z,3.12
2018-01-21T23:23:49.551Z,2.80
2018-01-21T23:26:17.411Z,2.70
2018-01-21T23:28:45.113Z,2.70
2018-01-21T23:31:13.339Z,2.70
2018-01-21T23:33:40.941Z,2.33
2018-01-21T23:36:08.626Z,3.25
2018-01-21T23:38:36.224Z,3.10
2018-01-21T23:41:04.565Z,3.10
2018-01-21T23:43:32.132Z,2.70
2018-01-21T23:45:59.766Z,2.53
2018-01-21T23:48:27.278Z,2.70
2018-01-21T23:50:54.879Z,3.20
2018-01-21T23:53:22.527Z,3.45
2018-01-21T23:55:50.054Z,3.70
2018-01-21T23:58:17.715Z,3.00
